Terminal Aerodrome Forecast
Issued by NWS Sterling, VA

Current Version | Previous Version | Text Only | Print | Product List | Glossary On
Versions: 1 2 3 4 5 6 7 8 9 10 11 12
000
FTUS41 KLWX 050520
TAFMRB
TAF
KMRB 050520Z 0506/0606 32009KT P6SM BKN070
     FM051500 32014G23KT P6SM SCT200
     FM052200 30007KT P6SM SKC
     FM060300 VRB03KT P6SM FEW250=

USA.gov is the U.S. government's official web portal to all federal, state and local government web resources and services.